Gentleman — WTA9437 — position and weather

sailwx.info

Track history (hours):
 
Tides and Currents Weather Stations Pressure Air Temp Water Temp Dewpoint Dewpoint Depression Visibility Wind Speed Wind Dir Waves Ship Positions

Gentleman

Owner: CHANNEL ISLAND SPORTFISHING, OXNARD, CA. More information available from US FCC via Universal Licensing System and Coast Guard Vessel Documentation Center.

Last reported at 2017-Sep-24 13:51 UTC. Time now 2017-Sep-24 14:20 UTC.
Position N 34°06' W 119°19'.

Length 20 m.

Type: Passenger vessel. MMSI: 367362110.

Date/timePositionNaut miles runAvg speedWind from/ knotsBaromVisibWave heightAir tempDewpointWater temp
2017-Sep-24 13:51N 34°06' W 119°19'6 0.7
2017-Sep-24 05:27N 34°10' W 119°13'0 0.0
2017-Sep-24 04:48N 34°10' W 119°13'0 0.0
2017-Sep-24 02:10N 34°10' W 119°13'0 0.0
2017-Sep-24 02:00N 34°10' W 119°13'0 0.0
2017-Sep-24 01:12N 34°10' W 119°13'0 0.0
2017-Sep-24 00:54N 34°10' W 119°13'0 0.0
2017-Sep-24 00:24N 34°10' W 119°13'0 0.0
2017-Sep-23 23:42N 34°10' W 119°13'0 0.0
2017-Sep-23 23:27N 34°10' W 119°13'1 0.9
2017-Sep-23 22:34N 34°09' W 119°14'2 8.5
2017-Sep-23 22:17N 34°07' W 119°16'2 8.3
2017-Sep-23 22:00N 34°05' W 119°18'5 8.6
2017-Sep-23 21:25N 34°01' W 119°21'3 2.1
2017-Sep-23 20:05N 34°00' W 119°24'1 3.9
2017-Sep-23 19:45N 34°01' W 119°22'12 0.3
2017-Sep-22 01:52N 34°10' W 119°13'0 0.0
2017-Sep-22 01:28N 34°10' W 119°13'0 0.0
2017-Sep-22 00:58N 34°10' W 119°13'0 0.0
2017-Sep-22 00:25N 34°10' W 119°13'0 0.0
2017-Sep-21 23:58N 34°10' W 119°13'0 0.0
2017-Sep-21 23:25N 34°10' W 119°13'0 0.0
2017-Sep-21 22:40N 34°10' W 119°13'0 0.0
2017-Sep-21 22:19N 34°10' W 119°13'0 0.0
2017-Sep-21 20:43N 34°10' W 119°13'0 0.0
2017-Sep-21 19:52N 34°10' W 119°13'0 0.0
2017-Sep-21 19:22N 34°10' W 119°13'0 0.0
2017-Sep-21 18:31N 34°10' W 119°13'0 0.0
2017-Sep-21 18:22N 34°10' W 119°13'0 0.1
2017-Sep-21 17:55N 34°10' W 119°13'5 8.0
2017-Sep-21 17:21N 34°08' W 119°18'3 9.0
2017-Sep-21 17:00N 34°07' W 119°22'7 9.1
2017-Sep-21 16:13N 34°02' W 119°29'2 8.4
2017-Sep-21 16:00N 34°01' W 119°30'1 1.8
2017-Sep-21 15:20N 33°60' W 119°29'4 6.5
2017-Sep-21 14:46N 34°02' W 119°26'3 8.6
2017-Sep-21 14:27N 34°03' W 119°23'4 8.2
2017-Sep-21 14:00N 34°06' W 119°19'4 8.2
2017-Sep-21 13:28N 34°08' W 119°15'2 2.2
2017-Sep-21 12:31N 34°10' W 119°13'0 0.0
2017-Sep-20 23:22N 34°10' W 119°13'2 6.7
2017-Sep-20 23:00N 34°08' W 119°15'5 9.3
2017-Sep-20 22:30N 34°06' W 119°20'9 6.4
2017-Sep-20 21:02N 33°60' W 119°29'0 6.5
2017-Sep-20 20:59N 33°60' W 119°28'1 0.8
2017-Sep-20 20:19N 33°60' W 119°28'1 1.5
2017-Sep-20 19:56N 33°60' W 119°27'4 0.8
2017-Sep-20 15:00N 34°01' W 119°22'6 6.4
2017-Sep-20 14:00N 34°05' W 119°18'5 8.7
2017-Sep-20 13:28N 34°09' W 119°14'1 1.9
2017-Sep-20 12:58N 34°10' W 119°13'0 0.0
2017-Sep-20 00:15N 34°10' W 119°13'0 0.0
2017-Sep-18 23:33N 34°10' W 119°13'0 0.8
2017-Sep-18 23:30N 34°10' W 119°13'2 4.2
2017-Sep-18 23:00N 34°08' W 119°15'4 7.7
2017-Sep-18 22:30N 34°05' W 119°17'4 7.7
2017-Sep-18 22:00N 34°02' W 119°20'2 5.0
2017-Sep-18 21:30N 34°00' W 119°22'0 0.0
2017-Sep-18 20:51N 34°00' W 119°22'1 0.8
2017-Sep-18 19:20N 34°01' W 119°21'1 0.4
2017-Sep-18 16:26N 34°00' W 119°23'0 0.0
2017-Sep-18 14:55N 34°00' W 119°23'1 2.8
2017-Sep-18 14:29N 34°01' W 119°21'4 8.3
2017-Sep-18 14:00N 34°04' W 119°18'4 8.4
2017-Sep-18 13:30N 34°08' W 119°15'3 3.3
2017-Sep-18 12:42N 34°10' W 119°13'0 0.1
2017-Sep-18 12:20N 34°10' W 119°13'0 0.0
2017-Sep-18 11:59N 34°10' W 119°13'0 0.0
2017-Sep-18 11:26N 34°10' W 119°13'0 0.0
2017-Sep-18 10:53N 34°10' W 119°13'0 0.0
2017-Sep-18 10:26N 34°10' W 119°13'0 0.0
2017-Sep-18 09:47N 34°10' W 119°13'0 0.0
2017-Sep-18 09:29N 34°10' W 119°13'0 0.0
2017-Sep-18 08:56N 34°10' W 119°13'0 0.0
2017-Sep-18 07:59N 34°10' W 119°13'0 0.0
2017-Sep-18 07:26N 34°10' W 119°13'0 0.0
2017-Sep-18 06:56N 34°10' W 119°13'0 0.0
2017-Sep-18 06:20N 34°10' W 119°13'0 0.0
2017-Sep-18 05:50N 34°10' W 119°13'0 0.0
2017-Sep-18 05:26N 34°10' W 119°13'0 0.0
2017-Sep-18 04:56N 34°10' W 119°13'0 0.0
2017-Sep-18 04:29N 34°10' W 119°13'0 0.0
2017-Sep-18 03:59N 34°10' W 119°13'0 0.0
2017-Sep-18 03:20N 34°10' W 119°13'0 0.0
2017-Sep-18 02:59N 34°10' W 119°13'0 0.0
2017-Sep-18 02:29N 34°10' W 119°13'0 0.0
2017-Sep-18 01:26N 34°10' W 119°13'0 0.0
2017-Sep-18 00:56N 34°10' W 119°13'0 0.0
2017-Sep-18 00:29N 34°10' W 119°13'0 0.0
2017-Sep-17 23:59N 34°10' W 119°13'0 0.1
2017-Sep-17 23:29N 34°10' W 119°13'3 5.8
2017-Sep-17 23:00N 34°07' W 119°15'3 6.5
2017-Sep-17 22:30N 34°05' W 119°18'3 6.4
2017-Sep-17 22:00N 34°02' W 119°20'2 3.3
2017-Sep-17 21:28N 34°01' W 119°21'0 0.0
2017-Sep-17 21:00N 34°01' W 119°21'0 0.9
2017-Sep-17 20:29N 34°01' W 119°21'0 0.1
2017-Sep-17 19:59N 34°01' W 119°21'0 0.0
2017-Sep-17 19:29N 34°01' W 119°21'0 0.0
2017-Sep-17 18:59N 34°01' W 119°21'0 0.0
2017-Sep-17 18:29N 34°01' W 119°21'0 0.6
2017-Sep-17 17:57N 34°01' W 119°21'0 0.6
2017-Sep-17 17:14N 34°01' W 119°21'1 1.0
2017-Sep-17 16:04N 34°00' W 119°22'0 0.3
2017-Sep-17 15:59N 34°00' W 119°22'1 0.9
2017-Sep-17 14:37N 34°01' W 119°21'0 0.6
2017-Sep-17 14:30N 34°01' W 119°21'5 8.8
2017-Sep-17 13:59N 34°05' W 119°18'4 8.7
2017-Sep-17 13:30N 34°08' W 119°15'2 3.8
2017-Sep-17 12:58N 34°10' W 119°13'0 0.1
2017-Sep-17 12:30N 34°10' W 119°13'0 0.1
2017-Sep-17 11:57N 34°10' W 119°13'0 0.0
2017-Sep-17 11:30N 34°10' W 119°13'0 0.0
2017-Sep-17 10:57N 34°10' W 119°13'0 0.0
2017-Sep-17 10:21N 34°10' W 119°13'0 0.0
2017-Sep-17 10:00N 34°10' W 119°13'0 0.0
2017-Sep-17 09:27N 34°10' W 119°13'0 0.0
2017-Sep-17 09:00N 34°10' W 119°13'0 0.0
2017-Sep-17 08:27N 34°10' W 119°13'0 0.0
2017-Sep-17 08:00N 34°10' W 119°13'0 0.0
2017-Sep-17 07:30N 34°10' W 119°13'0 0.0
2017-Sep-17 06:57N 34°10' W 119°13'0 0.0
2017-Sep-17 06:30N 34°10' W 119°13'0 0.0
2017-Sep-17 05:57N 34°10' W 119°13'0 0.0
2017-Sep-17 05:24N 34°10' W 119°13'0 0.0
2017-Sep-17 05:00N 34°10' W 119°13'0 0.0
2017-Sep-17 04:30N 34°10' W 119°13'0 0.0
2017-Sep-17 03:54N 34°10' W 119°13'0 0.0
2017-Sep-17 03:30N 34°10' W 119°13'0 0.0
2017-Sep-17 03:00N 34°10' W 119°13'0 0.0
2017-Sep-17 02:30N 34°10' W 119°13'0 0.0
2017-Sep-17 01:51N 34°10' W 119°13'0 0.0
2017-Sep-17 01:30N 34°10' W 119°13'0 0.0
2017-Sep-17 00:15N 34°10' W 119°13'0 0.0
2017-Sep-16 23:54N 34°10' W 119°13'0 0.7
2017-Sep-16 23:30N 34°10' W 119°13'0 0.6
2017-Sep-16 22:56N 34°09' W 119°14'1 2.0
2017-Sep-16 22:30N 34°09' W 119°14'4 6.9
2017-Sep-16 22:00N 34°06' W 119°17'4 7.2
2017-Sep-16 21:30N 34°03' W 119°20'2 2.4
2017-Sep-16 20:28N 34°01' W 119°21'0 0.0
2017-Sep-16 19:55N 34°01' W 119°21'0 0.0
2017-Sep-16 19:28N 34°01' W 119°21'0 0.0
2017-Sep-16 17:36N 34°01' W 119°21'0 1.1
2017-Sep-16 17:28N 34°01' W 119°21'0 0.0
2017-Sep-16 16:45N 34°01' W 119°21'0 1.2
2017-Sep-16 16:29N 34°01' W 119°21'0 0.1
2017-Sep-16 16:00N 34°01' W 119°21'0 0.8
2017-Sep-16 15:29N 34°01' W 119°21'0 0.0
2017-Sep-16 14:59N 34°01' W 119°21'2 3.5
2017-Sep-16 14:30N 34°02' W 119°20'4 8.4
2017-Sep-16 14:00N 34°06' W 119°17'4 8.3
2017-Sep-16 13:30N 34°09' W 119°14'1 2.0
2017-Sep-16 12:59N 34°10' W 119°13'0 0.0
2017-Sep-16 10:29N 34°10' W 119°13'0 0.0
2017-Sep-16 08:41N 34°10' W 119°13'0 0.0
2017-Sep-16 08:17N 34°10' W 119°13'0 0.0
2017-Sep-16 07:56N 34°10' W 119°13'0 0.0
2017-Sep-16 07:29N 34°10' W 119°13'0 0.0
2017-Sep-16 06:59N 34°10' W 119°13'0 0.0
2017-Sep-16 06:20N 34°10' W 119°13'0 0.0
2017-Sep-16 05:53N 34°10' W 119°13'0 0.0
2017-Sep-16 05:29N 34°10' W 119°13'0 0.0
2017-Sep-16 01:26N 34°10' W 119°13'0 0.0
2017-Sep-15 23:11N 34°10' W 119°13'1 2.7
2017-Sep-15 23:00N 34°09' W 119°14'1 2.7
2017-Sep-15 22:30N 34°08' W 119°15'4 7.2
2017-Sep-15 22:00N 34°06' W 119°18'3 6.6
2017-Sep-15 21:29N 34°03' W 119°20'2 3.8
2017-Sep-15 20:59N 34°01' W 119°21'0 0.0
2017-Sep-15 20:29N 34°01' W 119°21'0 0.0
2017-Sep-15 19:59N 34°01' W 119°21'2 3.5
2017-Sep-15 19:28N 34°01' W 119°19'0 0.1
2017-Sep-15 19:00N 34°01' W 119°19'0 0.5
2017-Sep-15 18:30N 34°01' W 119°19'0 0.1
2017-Sep-15 18:00N 34°02' W 119°19'0 0.1
2017-Sep-15 17:28N 34°02' W 119°19'0 0.3
2017-Sep-15 17:00N 34°01' W 119°19'0 0.2
2017-Sep-15 16:30N 34°01' W 119°20'4 8.0
2017-Sep-15 16:00N 34°05' W 119°17'4 8.5
2017-Sep-15 15:30N 34°09' W 119°15'2 2.8
2017-Sep-15 14:57N 34°10' W 119°13'0 0.0
2017-Sep-15 14:24N 34°10' W 119°13'0 0.0
2017-Sep-15 13:57N 34°10' W 119°13'0 0.0
2017-Sep-15 12:54N 34°10' W 119°13'0 0.0
2017-Sep-15 12:00N 34°10' W 119°13'0 0.0
2017-Sep-15 07:33N 34°10' W 119°13'0 0.0
2017-Sep-15 07:24N 34°10' W 119°13'0 0.0
2017-Sep-15 07:00N 34°10' W 119°13'0 0.0
2017-Sep-15 06:21N 34°10' W 119°13'0 0.0
2017-Sep-15 05:57N 34°10' W 119°13'0 0.0
2017-Sep-15 05:30N 34°10' W 119°13'0 0.0
2017-Sep-15 04:51N 34°10' W 119°13'0 0.0
2017-Sep-15 02:06N 34°10' W 119°13'0 0.0
2017-Sep-15 02:00N 34°10' W 119°13'0 0.0
2017-Sep-14 23:03N 34°10' W 119°13'0 0.0
2017-Sep-14 22:54N 34°10' W 119°13'0 0.0
2017-Sep-14 21:51N 34°10' W 119°13'0 0.0
2017-Sep-14 21:30N 34°10' W 119°13'0 0.0
2017-Sep-14 20:45N 34°10' W 119°13'0 0.0
2017-Sep-14 17:09N 34°10' W 119°13'  
Track history (hours):
 
Tides and Currents Weather Stations Pressure Air Temp Water Temp Dewpoint Dewpoint Depression Visibility Wind Speed Wind Dir Waves Ship Positions

Gentleman

Owner: CHANNEL ISLAND SPORTFISHING, OXNARD, CA. More information available from US FCC via Universal Licensing System and Coast Guard Vessel Documentation Center.

Last reported at 2017-Sep-24 13:51 UTC. Time now 2017-Sep-24 14:20 UTC.
Position N 34°06' W 119°19'.

Length 20 m.

Type: Passenger vessel. MMSI: 367362110.

Date/timePositionNaut miles runAvg speedWind from/ knotsBaromVisibWave heightAir tempDewpointWater temp
2017-Sep-24 13:51N 34°06' W 119°19'6 0.7
2017-Sep-24 05:27N 34°10' W 119°13'0 0.0
2017-Sep-24 04:48N 34°10' W 119°13'0 0.0
2017-Sep-24 02:10N 34°10' W 119°13'0 0.0
2017-Sep-24 02:00N 34°10' W 119°13'0 0.0
2017-Sep-24 01:12N 34°10' W 119°13'0 0.0
2017-Sep-24 00:54N 34°10' W 119°13'0 0.0
2017-Sep-24 00:24N 34°10' W 119°13'0 0.0
2017-Sep-23 23:42N 34°10' W 119°13'0 0.0
2017-Sep-23 23:27N 34°10' W 119°13'1 0.9
2017-Sep-23 22:34N 34°09' W 119°14'2 8.5
2017-Sep-23 22:17N 34°07' W 119°16'2 8.3
2017-Sep-23 22:00N 34°05' W 119°18'5 8.6
2017-Sep-23 21:25N 34°01' W 119°21'3 2.1
2017-Sep-23 20:05N 34°00' W 119°24'1 3.9
2017-Sep-23 19:45N 34°01' W 119°22'12 0.3
2017-Sep-22 01:52N 34°10' W 119°13'0 0.0
2017-Sep-22 01:28N 34°10' W 119°13'0 0.0
2017-Sep-22 00:58N 34°10' W 119°13'0 0.0
2017-Sep-22 00:25N 34°10' W 119°13'0 0.0
2017-Sep-21 23:58N 34°10' W 119°13'0 0.0
2017-Sep-21 23:25N 34°10' W 119°13'0 0.0
2017-Sep-21 22:40N 34°10' W 119°13'0 0.0
2017-Sep-21 22:19N 34°10' W 119°13'0 0.0
2017-Sep-21 20:43N 34°10' W 119°13'0 0.0
2017-Sep-21 19:52N 34°10' W 119°13'0 0.0
2017-Sep-21 19:22N 34°10' W 119°13'0 0.0
2017-Sep-21 18:31N 34°10' W 119°13'0 0.0
2017-Sep-21 18:22N 34°10' W 119°13'0 0.1
2017-Sep-21 17:55N 34°10' W 119°13'5 8.0
2017-Sep-21 17:21N 34°08' W 119°18'3 9.0
2017-Sep-21 17:00N 34°07' W 119°22'7 9.1
2017-Sep-21 16:13N 34°02' W 119°29'2 8.4
2017-Sep-21 16:00N 34°01' W 119°30'1 1.8
2017-Sep-21 15:20N 33°60' W 119°29'4 6.5
2017-Sep-21 14:46N 34°02' W 119°26'3 8.6
2017-Sep-21 14:27N 34°03' W 119°23'4 8.2
2017-Sep-21 14:00N 34°06' W 119°19'4 8.2
2017-Sep-21 13:28N 34°08' W 119°15'2 2.2
2017-Sep-21 12:31N 34°10' W 119°13'0 0.0
2017-Sep-20 23:22N 34°10' W 119°13'2 6.7
2017-Sep-20 23:00N 34°08' W 119°15'5 9.3
2017-Sep-20 22:30N 34°06' W 119°20'9 6.4
2017-Sep-20 21:02N 33°60' W 119°29'0 6.5
2017-Sep-20 20:59N 33°60' W 119°28'1 0.8
2017-Sep-20 20:19N 33°60' W 119°28'1 1.5
2017-Sep-20 19:56N 33°60' W 119°27'4 0.8
2017-Sep-20 15:00N 34°01' W 119°22'6 6.4
2017-Sep-20 14:00N 34°05' W 119°18'5 8.7
2017-Sep-20 13:28N 34°09' W 119°14'1 1.9
2017-Sep-20 12:58N 34°10' W 119°13'0 0.0
2017-Sep-20 00:15N 34°10' W 119°13'0 0.0
2017-Sep-18 23:33N 34°10' W 119°13'0 0.8
2017-Sep-18 23:30N 34°10' W 119°13'2 4.2
2017-Sep-18 23:00N 34°08' W 119°15'4 7.7
2017-Sep-18 22:30N 34°05' W 119°17'4 7.7
2017-Sep-18 22:00N 34°02' W 119°20'2 5.0
2017-Sep-18 21:30N 34°00' W 119°22'0 0.0
2017-Sep-18 20:51N 34°00' W 119°22'1 0.8
2017-Sep-18 19:20N 34°01' W 119°21'1 0.4
2017-Sep-18 16:26N 34°00' W 119°23'0 0.0
2017-Sep-18 14:55N 34°00' W 119°23'1 2.8
2017-Sep-18 14:29N 34°01' W 119°21'4 8.3
2017-Sep-18 14:00N 34°04' W 119°18'4 8.4
2017-Sep-18 13:30N 34°08' W 119°15'3 3.3
2017-Sep-18 12:42N 34°10' W 119°13'0 0.1
2017-Sep-18 12:20N 34°10' W 119°13'0 0.0
2017-Sep-18 11:59N 34°10' W 119°13'0 0.0
2017-Sep-18 11:26N 34°10' W 119°13'0 0.0
2017-Sep-18 10:53N 34°10' W 119°13'0 0.0
2017-Sep-18 10:26N 34°10' W 119°13'0 0.0
2017-Sep-18 09:47N 34°10' W 119°13'0 0.0
2017-Sep-18 09:29N 34°10' W 119°13'0 0.0
2017-Sep-18 08:56N 34°10' W 119°13'0 0.0
2017-Sep-18 07:59N 34°10' W 119°13'0 0.0
2017-Sep-18 07:26N 34°10' W 119°13'0 0.0
2017-Sep-18 06:56N 34°10' W 119°13'0 0.0
2017-Sep-18 06:20N 34°10' W 119°13'0 0.0
2017-Sep-18 05:50N 34°10' W 119°13'0 0.0
2017-Sep-18 05:26N 34°10' W 119°13'0 0.0
2017-Sep-18 04:56N 34°10' W 119°13'0 0.0
2017-Sep-18 04:29N 34°10' W 119°13'0 0.0
2017-Sep-18 03:59N 34°10' W 119°13'0 0.0
2017-Sep-18 03:20N 34°10' W 119°13'0 0.0
2017-Sep-18 02:59N 34°10' W 119°13'0 0.0
2017-Sep-18 02:29N 34°10' W 119°13'0 0.0
2017-Sep-18 01:26N 34°10' W 119°13'0 0.0
2017-Sep-18 00:56N 34°10' W 119°13'0 0.0
2017-Sep-18 00:29N 34°10' W 119°13'0 0.0
2017-Sep-17 23:59N 34°10' W 119°13'0 0.1
2017-Sep-17 23:29N 34°10' W 119°13'3 5.8
2017-Sep-17 23:00N 34°07' W 119°15'3 6.5
2017-Sep-17 22:30N 34°05' W 119°18'3 6.4
2017-Sep-17 22:00N 34°02' W 119°20'2 3.3
2017-Sep-17 21:28N 34°01' W 119°21'0 0.0
2017-Sep-17 21:00N 34°01' W 119°21'0 0.9
2017-Sep-17 20:29N 34°01' W 119°21'0 0.1
2017-Sep-17 19:59N 34°01' W 119°21'0 0.0
2017-Sep-17 19:29N 34°01' W 119°21'0 0.0
2017-Sep-17 18:59N 34°01' W 119°21'0 0.0
2017-Sep-17 18:29N 34°01' W 119°21'0 0.6
2017-Sep-17 17:57N 34°01' W 119°21'0 0.6
2017-Sep-17 17:14N 34°01' W 119°21'1 1.0
2017-Sep-17 16:04N 34°00' W 119°22'0 0.3
2017-Sep-17 15:59N 34°00' W 119°22'1 0.9
2017-Sep-17 14:37N 34°01' W 119°21'0 0.6
2017-Sep-17 14:30N 34°01' W 119°21'5 8.8
2017-Sep-17 13:59N 34°05' W 119°18'4 8.7
2017-Sep-17 13:30N 34°08' W 119°15'2 3.8
2017-Sep-17 12:58N 34°10' W 119°13'0 0.1
2017-Sep-17 12:30N 34°10' W 119°13'0 0.1
2017-Sep-17 11:57N 34°10' W 119°13'0 0.0
2017-Sep-17 11:30N 34°10' W 119°13'0 0.0
2017-Sep-17 10:57N 34°10' W 119°13'0 0.0
2017-Sep-17 10:21N 34°10' W 119°13'0 0.0
2017-Sep-17 10:00N 34°10' W 119°13'0 0.0
2017-Sep-17 09:27N 34°10' W 119°13'0 0.0
2017-Sep-17 09:00N 34°10' W 119°13'0 0.0
2017-Sep-17 08:27N 34°10' W 119°13'0 0.0
2017-Sep-17 08:00N 34°10' W 119°13'0 0.0
2017-Sep-17 07:30N 34°10' W 119°13'0 0.0
2017-Sep-17 06:57N 34°10' W 119°13'0 0.0
2017-Sep-17 06:30N 34°10' W 119°13'0 0.0
2017-Sep-17 05:57N 34°10' W 119°13'0 0.0
2017-Sep-17 05:24N 34°10' W 119°13'0 0.0
2017-Sep-17 05:00N 34°10' W 119°13'0 0.0
2017-Sep-17 04:30N 34°10' W 119°13'0 0.0
2017-Sep-17 03:54N 34°10' W 119°13'0 0.0
2017-Sep-17 03:30N 34°10' W 119°13'0 0.0
2017-Sep-17 03:00N 34°10' W 119°13'0 0.0
2017-Sep-17 02:30N 34°10' W 119°13'0 0.0
2017-Sep-17 01:51N 34°10' W 119°13'0 0.0
2017-Sep-17 01:30N 34°10' W 119°13'0 0.0
2017-Sep-17 00:15N 34°10' W 119°13'0 0.0
2017-Sep-16 23:54N 34°10' W 119°13'0 0.7
2017-Sep-16 23:30N 34°10' W 119°13'0 0.6
2017-Sep-16 22:56N 34°09' W 119°14'1 2.0
2017-Sep-16 22:30N 34°09' W 119°14'4 6.9
2017-Sep-16 22:00N 34°06' W 119°17'4 7.2
2017-Sep-16 21:30N 34°03' W 119°20'2 2.4
2017-Sep-16 20:28N 34°01' W 119°21'0 0.0
2017-Sep-16 19:55N 34°01' W 119°21'0 0.0
2017-Sep-16 19:28N 34°01' W 119°21'0 0.0
2017-Sep-16 17:36N 34°01' W 119°21'0 1.1
2017-Sep-16 17:28N 34°01' W 119°21'0 0.0
2017-Sep-16 16:45N 34°01' W 119°21'0 1.2
2017-Sep-16 16:29N 34°01' W 119°21'0 0.1
2017-Sep-16 16:00N 34°01' W 119°21'0 0.8
2017-Sep-16 15:29N 34°01' W 119°21'0 0.0
2017-Sep-16 14:59N 34°01' W 119°21'2 3.5
2017-Sep-16 14:30N 34°02' W 119°20'4 8.4
2017-Sep-16 14:00N 34°06' W 119°17'4 8.3
2017-Sep-16 13:30N 34°09' W 119°14'1 2.0
2017-Sep-16 12:59N 34°10' W 119°13'0 0.0
2017-Sep-16 10:29N 34°10' W 119°13'0 0.0
2017-Sep-16 08:41N 34°10' W 119°13'0 0.0
2017-Sep-16 08:17N 34°10' W 119°13'0 0.0
2017-Sep-16 07:56N 34°10' W 119°13'0 0.0
2017-Sep-16 07:29N 34°10' W 119°13'0 0.0
2017-Sep-16 06:59N 34°10' W 119°13'0 0.0
2017-Sep-16 06:20N 34°10' W 119°13'0 0.0
2017-Sep-16 05:53N 34°10' W 119°13'0 0.0
2017-Sep-16 05:29N 34°10' W 119°13'0 0.0
2017-Sep-16 01:26N 34°10' W 119°13'0 0.0
2017-Sep-15 23:11N 34°10' W 119°13'1 2.7
2017-Sep-15 23:00N 34°09' W 119°14'1 2.7
2017-Sep-15 22:30N 34°08' W 119°15'4 7.2
2017-Sep-15 22:00N 34°06' W 119°18'3 6.6
2017-Sep-15 21:29N 34°03' W 119°20'2 3.8
2017-Sep-15 20:59N 34°01' W 119°21'0 0.0
2017-Sep-15 20:29N 34°01' W 119°21'0 0.0
2017-Sep-15 19:59N 34°01' W 119°21'2 3.5
2017-Sep-15 19:28N 34°01' W 119°19'0 0.1
2017-Sep-15 19:00N 34°01' W 119°19'0 0.5
2017-Sep-15 18:30N 34°01' W 119°19'0 0.1
2017-Sep-15 18:00N 34°02' W 119°19'0 0.1
2017-Sep-15 17:28N 34°02' W 119°19'0 0.3
2017-Sep-15 17:00N 34°01' W 119°19'0 0.2
2017-Sep-15 16:30N 34°01' W 119°20'4 8.0
2017-Sep-15 16:00N 34°05' W 119°17'4 8.5
2017-Sep-15 15:30N 34°09' W 119°15'2 2.8
2017-Sep-15 14:57N 34°10' W 119°13'0 0.0
2017-Sep-15 14:24N 34°10' W 119°13'0 0.0
2017-Sep-15 13:57N 34°10' W 119°13'0 0.0
2017-Sep-15 12:54N 34°10' W 119°13'0 0.0
2017-Sep-15 12:00N 34°10' W 119°13'0 0.0
2017-Sep-15 07:33N 34°10' W 119°13'0 0.0
2017-Sep-15 07:24N 34°10' W 119°13'0 0.0
2017-Sep-15 07:00N 34°10' W 119°13'0 0.0
2017-Sep-15 06:21N 34°10' W 119°13'0 0.0
2017-Sep-15 05:57N 34°10' W 119°13'0 0.0
2017-Sep-15 05:30N 34°10' W 119°13'0 0.0
2017-Sep-15 04:51N 34°10' W 119°13'0 0.0
2017-Sep-15 02:06N 34°10' W 119°13'0 0.0
2017-Sep-15 02:00N 34°10' W 119°13'0 0.0
2017-Sep-14 23:03N 34°10' W 119°13'0 0.0
2017-Sep-14 22:54N 34°10' W 119°13'0 0.0
2017-Sep-14 21:51N 34°10' W 119°13'0 0.0
2017-Sep-14 21:30N 34°10' W 119°13'0 0.0
2017-Sep-14 20:45N 34°10' W 119°13'0 0.0
2017-Sep-14 17:09N 34°10' W 119°13'  

Dump ship's entire track history